Time;durP1;ratioP1;P1;durP2;ratioP2;P2;SDS_P1;SDS_P2;PMS_P1;PMS_P2;Temp;Humidity;BMP_temperature;BMP_pressure;BME280_temperature;BME280_humidity;BME280_pressure;Samples;Min_cycle;Max_cycle;Signal;HPM_P1;HPM_P2
2022/11/15 00:00:13;;;;;;;9.80;4.70;;;;;3.10;98050.80;;;;108755;1271;41166;-60
2022/11/15 00:03:05;;;;;;;11.00;5.10;;;;;3.10;98056.00;;;;108703;1272;41611;-60
2022/11/15 00:05:53;;;;;;;9.90;5.10;;;;;3.10;98051.00;;;;108614;1272;41148;-60
2022/11/15 00:08:42;;;;;;;10.20;4.90;;;;;3.14;98051.00;;;;108596;1272;41154;-61
2022/11/15 00:11:30;;;;;;;10.20;4.90;;;;;3.20;98047.80;;;;108800;1271;41201;-61
2022/11/15 00:14:20;;;;;;;9.80;4.80;;;;;3.20;98054.40;;;;108933;1271;41166;-60
2022/11/15 00:17:08;;;;;;;9.60;4.40;;;;;3.20;98052.00;;;;108894;1272;41628;-61
2022/11/15 00:19:56;;;;;;;10.00;4.60;;;;;3.22;98050.00;;;;108900;1267;41146;-61
2022/11/15 00:22:44;;;;;;;10.20;4.50;;;;;3.30;98048.60;;;;108917;1271;41184;-60
2022/11/15 00:25:33;;;;;;;10.40;4.80;;;;;3.28;98036.80;;;;108953;1271;41159;-60
2022/11/15 00:28:22;;;;;;;10.40;5.00;;;;;3.30;98033.40;;;;108878;1271;41217;-61
2022/11/15 00:31:13;;;;;;;35.20;5.50;;;;;3.30;98028.00;;;;108747;1271;41163;-61
2022/11/15 00:34:01;;;;;;;9.30;4.40;;;;;3.20;98028.60;;;;108585;1267;41198;-61
2022/11/15 00:36:51;;;;;;;12.10;4.90;;;;;3.20;98028.80;;;;108607;1270;41156;-61
2022/11/15 00:39:40;;;;;;;9.50;4.60;;;;;3.20;98029.80;;;;108775;1272;41144;-61
2022/11/15 00:42:29;;;;;;;10.70;4.40;;;;;3.20;98025.80;;;;108938;1271;41163;-62
2022/11/15 00:45:18;;;;;;;10.90;5.00;;;;;3.18;98018.40;;;;108865;1270;41164;-61
2022/11/15 00:48:08;;;;;;;9.70;4.20;;;;;3.02;98012.60;;;;108925;1271;41305;-61
2022/11/15 00:50:57;;;;;;;10.20;4.30;;;;;3.00;98002.80;;;;108875;1271;41183;-62
2022/11/15 00:53:45;;;;;;;9.40;4.40;;;;;3.00;98011.80;;;;108878;1271;41211;-61
2022/11/15 00:56:34;;;;;;;8.50;4.20;;;;;3.02;98004.20;;;;108826;1271;42417;-61
2022/11/15 00:59:22;;;;;;;10.20;4.40;;;;;3.00;98000.20;;;;108932;1271;41198;-62
2022/11/15 01:02:10;;;;;;;11.30;4.90;;;;;3.00;98001.60;;;;108611;1271;41154;-63
2022/11/15 01:05:01;;;;;;;9.70;4.90;;;;;3.00;98000.20;;;;108682;1272;41182;-63
2022/11/15 01:07:55;;;;;;;15.00;5.50;;;;;2.90;97995.60;;;;108756;1271;41270;-61
2022/11/15 01:10:44;;;;;;;15.70;4.80;;;;;2.80;97996.20;;;;108931;1271;41159;-61
2022/11/15 01:13:34;;;;;;;10.80;4.40;;;;;2.70;97991.20;;;;108683;1271;41225;-63
2022/11/15 01:16:22;;;;;;;10.00;4.90;;;;;2.70;97993.00;;;;108955;1271;41152;-61
2022/11/15 01:19:10;;;;;;;11.00;4.90;;;;;2.62;97992.00;;;;108929;1271;41929;-61
2022/11/15 01:22:00;;;;;;;10.10;5.20;;;;;2.60;97993.20;;;;108604;1271;41238;-61
2022/11/15 01:24:50;;;;;;;12.90;6.50;;;;;2.56;97987.80;;;;108600;1271;41146;-60
2022/11/15 01:27:39;;;;;;;11.60;5.50;;;;;2.56;97986.80;;;;108859;1271;41167;-61
2022/11/15 01:30:30;;;;;;;12.50;5.90;;;;;2.54;97986.80;;;;108966;1271;41616;-61
2022/11/15 01:33:20;;;;;;;14.20;5.80;;;;;2.50;97985.40;;;;108951;1269;41933;-61
2022/11/15 01:36:22;;;;;;;9.30;4.50;;;;;2.50;97984.20;;;;108932;1271;41388;-61
2022/11/15 01:39:13;;;;;;;9.90;4.60;;;;;2.52;97972.80;;;;108878;1271;41141;-61
2022/11/15 01:42:02;;;;;;;11.20;5.30;;;;;2.50;97973.40;;;;108596;1271;41171;-61
2022/11/15 01:44:54;;;;;;;13.90;4.90;;;;;2.50;97973.20;;;;108620;1271;41149;-62
2022/11/15 01:47:47;;;;;;;22.80;4.90;;;;;2.50;97967.00;;;;108926;1271;41152;-61
2022/11/15 01:50:38;;;;;;;9.30;4.50;;;;;2.50;97971.80;;;;108908;1270;41801;-61
2022/11/15 01:53:28;;;;;;;11.50;4.30;;;;;2.50;97968.60;;;;108887;1270;41193;-61
2022/11/15 01:56:20;;;;;;;9.70;4.40;;;;;2.50;97963.80;;;;108965;1271;41166;-61
2022/11/15 01:59:11;;;;;;;9.20;4.60;;;;;2.50;97963.80;;;;108730;1271;41185;-61
2022/11/15 02:02:01;;;;;;;10.70;5.10;;;;;2.50;97963.60;;;;108918;1271;41184;-61
2022/11/15 02:04:50;;;;;;;11.20;4.50;;;;;2.60;97963.20;;;;108775;1271;41235;-62
2022/11/15 02:07:39;;;;;;;10.00;4.60;;;;;2.60;97954.80;;;;108813;1271;41158;-61
2022/11/15 02:10:30;;;;;;;9.60;5.10;;;;;2.60;97959.40;;;;108907;1271;41607;-61
2022/11/15 02:13:21;;;;;;;9.10;3.90;;;;;2.60;97953.40;;;;108857;1270;41239;-62
2022/11/15 02:16:17;;;;;;;8.90;4.30;;;;;2.64;97950.80;;;;108795;1271;41199;-61
2022/11/15 02:19:32;;;;;;;24.20;5.70;;;;;2.70;97950.40;;;;108905;1270;41406;-61
2022/11/15 02:22:50;;;;;;;10.60;4.60;;;;;2.70;97944.80;;;;108826;1271;41895;-61
2022/11/15 02:25:52;;;;;;;8.50;4.10;;;;;2.70;97939.40;;;;108924;1271;41258;-60
2022/11/15 02:29:16;;;;;;;9.00;4.60;;;;;2.70;97939.20;;;;108891;1271;41190;-61
2022/11/15 02:32:04;;;;;;;;;;;;;2.60;97931.80;;;;108796;1270;41481;-61
2022/11/15 02:35:05;;;;;;;13.30;5.20;;;;;2.50;97929.40;;;;108932;1271;41181;-61
2022/11/15 02:38:10;;;;;;;18.00;4.90;;;;;2.40;97928.20;;;;108869;1271;41172;-61
2022/11/15 02:41:06;;;;;;;11.00;4.60;;;;;2.32;97927.40;;;;108807;1271;41160;-61
2022/11/15 02:44:17;;;;;;;12.10;4.90;;;;;2.36;97930.40;;;;108579;1271;41175;-61
2022/11/15 02:47:13;;;;;;;10.00;4.90;;;;;2.38;97927.80;;;;108741;1271;41159;-62
2022/11/15 02:50:08;;;;;;;9.40;4.30;;;;;2.30;97929.60;;;;108843;1271;41154;-60
2022/11/15 02:52:56;;;;;;;8.90;4.50;;;;;2.30;97933.80;;;;108806;1271;41562;-60
2022/11/15 02:55:50;;;;;;;10.60;4.10;;;;;2.30;97929.40;;;;108849;1270;41703;-61
2022/11/15 02:58:59;;;;;;;12.30;4.80;;;;;2.36;97928.20;;;;108896;1270;41602;-61
2022/11/15 03:02:16;;;;;;;23.70;4.60;;;;;2.30;97930.20;;;;108837;1271;42550;-60
2022/11/15 03:05:20;;;;;;;12.90;4.40;;;;;2.30;97926.60;;;;108942;1270;41700;-61
2022/11/15 03:08:26;;;;;;;8.30;4.00;;;;;2.22;97923.00;;;;108916;1271;41876;-61
2022/11/15 03:11:20;;;;;;;8.00;3.80;;;;;2.20;97926.00;;;;108911;1271;41166;-61
2022/11/15 03:14:21;;;;;;;8.80;4.20;;;;;2.20;97921.60;;;;108835;1271;41623;-61
2022/11/15 03:17:30;;;;;;;9.10;4.20;;;;;2.20;97917.60;;;;108882;1271;41169;-61
2022/11/15 03:20:19;;;;;;;8.70;3.90;;;;;2.30;97918.60;;;;108913;1271;41168;-62
2022/11/15 03:23:10;;;;;;;10.30;4.40;;;;;2.30;97919.80;;;;108883;1270;41785;-61
2022/11/15 03:26:00;;;;;;;9.70;4.50;;;;;2.30;97917.40;;;;108861;1271;41709;-61
2022/11/15 03:28:49;;;;;;;12.70;4.40;;;;;2.30;97914.40;;;;108844;1271;41147;-61
2022/11/15 03:31:48;;;;;;;9.00;4.40;;;;;2.30;97915.80;;;;108901;1271;41671;-61
2022/11/15 03:34:49;;;;;;;14.70;4.00;;;;;2.30;97908.00;;;;108905;1271;41154;-61
2022/11/15 03:37:46;;;;;;;8.70;4.00;;;;;2.30;97908.20;;;;108922;1271;41174;-61
2022/11/15 03:40:45;;;;;;;8.40;3.90;;;;;2.30;97904.40;;;;108893;1270;41176;-61
2022/11/15 03:43:41;;;;;;;9.20;3.90;;;;;2.30;97904.40;;;;108785;1271;41163;-61
2022/11/15 03:46:36;;;;;;;8.50;4.10;;;;;2.20;97906.80;;;;108909;1270;41738;-61
2022/11/15 03:49:29;;;;;;;8.90;3.90;;;;;2.20;97906.40;;;;108894;1271;41689;-61
2022/11/15 03:52:19;;;;;;;8.30;4.00;;;;;2.10;97903.40;;;;108941;1271;41163;-61
2022/11/15 03:55:12;;;;;;;7.40;3.60;;;;;2.10;97902.20;;;;108926;1271;41142;-61
2022/11/15 03:58:01;;;;;;;8.50;3.70;;;;;2.02;97898.40;;;;108881;1271;41172;-62
2022/11/15 04:00:50;;;;;;;8.00;3.90;;;;;2.00;97898.60;;;;108864;1271;41145;-61
2022/11/15 04:03:38;;;;;;;10.40;4.40;;;;;2.00;97899.60;;;;108912;1271;41616;-62
2022/11/15 04:06:27;;;;;;;7.80;3.70;;;;;2.00;97891.40;;;;108631;1271;41232;-62
2022/11/15 04:09:16;;;;;;;10.90;3.70;;;;;2.00;97892.40;;;;108607;1271;41156;-60
2022/11/15 04:12:04;;;;;;;8.60;4.10;;;;;2.00;97894.00;;;;108699;1271;41156;-60
2022/11/15 04:15:06;;;;;;;7.70;3.50;;;;;2.00;97894.80;;;;108866;1271;43057;-60
2022/11/15 04:17:57;;;;;;;9.30;4.30;;;;;1.92;97886.80;;;;108928;1271;41145;-60
2022/11/15 04:27:00;;;;;;;8.30;4.30;;;;;1.80;97884.00;;;;108837;1271;41175;-61
2022/11/15 04:29:48;;;;;;;8.20;4.00;;;;;1.80;97884.40;;;;108881;1271;41245;-61
2022/11/15 04:32:37;;;;;;;23.10;4.80;;;;;1.80;97885.20;;;;108919;1266;41395;-61
2022/11/15 04:35:27;;;;;;;17.90;4.60;;;;;1.80;97893.80;;;;108929;1270;41596;-61
2022/11/15 04:38:16;;;;;;;8.70;3.70;;;;;1.80;97887.60;;;;108932;1270;41615;-61
2022/11/15 04:41:05;;;;;;;12.00;4.30;;;;;1.80;97885.00;;;;108909;1271;41716;-61
2022/11/15 04:43:54;;;;;;;11.20;3.90;;;;;1.80;97881.20;;;;108924;1270;41278;-62
2022/11/15 04:46:43;;;;;;;8.40;4.00;;;;;1.84;97877.80;;;;108626;1271;41153;-62
2022/11/15 04:49:32;;;;;;;10.60;4.90;;;;;1.90;97877.00;;;;108645;1271;41229;-62
2022/11/15 04:52:21;;;;;;;8.80;4.30;;;;;1.90;97881.20;;;;108898;1271;41425;-62
2022/11/15 04:55:10;;;;;;;9.10;4.40;;;;;1.90;97882.00;;;;108935;1271;41668;-61
2022/11/15 04:58:00;;;;;;;10.20;5.00;;;;;1.90;97882.20;;;;108681;1271;41617;-61
2022/11/15 05:00:48;;;;;;;9.60;4.70;;;;;1.90;97883.40;;;;108599;1271;41135;-62
2022/11/15 05:06:44;;;;;;;9.60;4.70;;;;;1.90;97887.40;;;;108764;1271;41174;-61
2022/11/15 05:09:32;;;;;;;8.90;4.00;;;;;1.92;97892.00;;;;108615;1264;41689;-61
2022/11/15 05:12:20;;;;;;;8.20;3.90;;;;;1.96;97889.20;;;;108645;1271;41155;-61
2022/11/15 05:15:09;;;;;;;9.00;4.10;;;;;2.00;97887.60;;;;108641;1271;41157;-60
2022/11/15 05:18:00;;;;;;;9.00;4.10;;;;;2.00;97889.60;;;;108750;1262;41488;-61
2022/11/15 05:20:47;;;;;;;8.60;4.20;;;;;1.98;97893.80;;;;108902;1266;41930;-61
2022/11/15 05:23:35;;;;;;;8.90;4.30;;;;;1.94;97893.00;;;;108943;1271;41594;-61
2022/11/15 05:26:24;;;;;;;9.70;4.70;;;;;1.90;97891.40;;;;108966;1271;41265;-61
2022/11/15 05:29:12;;;;;;;9.60;4.50;;;;;1.90;97895.60;;;;108840;1271;41259;-61
2022/11/15 05:32:00;;;;;;;9.30;4.40;;;;;1.90;97892.40;;;;108893;1270;41657;-62
2022/11/15 05:34:48;;;;;;;8.50;4.10;;;;;1.90;97889.40;;;;108934;1271;41163;-58
2022/11/15 05:37:35;;;;;;;9.10;4.00;;;;;1.96;97887.80;;;;108799;1271;41192;-58
2022/11/15 05:40:24;;;;;;;8.10;4.00;;;;;1.94;97889.80;;;;108919;1271;41144;-58
2022/11/15 05:43:12;;;;;;;8.40;4.20;;;;;1.96;97884.00;;;;108786;1271;41205;-58
2022/11/15 05:46:00;;;;;;;8.40;3.70;;;;;1.90;97888.00;;;;108815;1271;41931;-58
2022/11/15 05:48:50;;;;;;;9.50;4.20;;;;;1.90;97886.00;;;;108873;1271;41653;-59
2022/11/15 05:51:39;;;;;;;13.60;4.60;;;;;1.90;97894.20;;;;108652;1271;41158;-58
2022/11/15 05:54:26;;;;;;;10.80;4.70;;;;;1.92;97897.80;;;;108645;1271;41138;-58
2022/11/15 05:57:15;;;;;;;10.40;4.90;;;;;1.96;97897.40;;;;108914;1271;41140;-59
2022/11/15 06:00:04;;;;;;;12.20;5.20;;;;;1.96;97895.80;;;;108917;1270;41142;-59
2022/11/15 06:02:52;;;;;;;16.80;5.70;;;;;1.92;97894.40;;;;108799;1270;41164;-58
2022/11/15 06:05:40;;;;;;;11.10;5.30;;;;;1.84;97892.20;;;;108905;1271;41857;-60
2022/11/15 06:08:27;;;;;;;10.40;4.70;;;;;1.80;97893.40;;;;108889;1266;41325;-59
2022/11/15 06:11:15;;;;;;;11.70;4.70;;;;;1.80;97894.00;;;;108889;1269;41146;-58
2022/11/15 06:14:03;;;;;;;13.30;5.20;;;;;1.82;97895.00;;;;108872;1271;41147;-58
2022/11/15 06:16:51;;;;;;;12.10;5.10;;;;;1.90;97897.40;;;;108844;1270;41154;-58
2022/11/15 06:19:39;;;;;;;11.70;5.90;;;;;1.90;97900.00;;;;108897;1270;41682;-58
2022/11/15 06:22:26;;;;;;;12.10;5.80;;;;;1.90;97892.80;;;;108915;1271;41379;-57
2022/11/15 06:25:13;;;;;;;14.40;6.40;;;;;1.82;97900.40;;;;108856;1269;41143;-58
2022/11/15 06:28:01;;;;;;;12.90;5.80;;;;;1.80;97905.80;;;;108886;1266;41876;-58
2022/11/15 06:30:48;;;;;;;14.00;5.40;;;;;1.70;97903.80;;;;108789;1271;41185;-58
2022/11/15 06:33:39;;;;;;;10.40;5.00;;;;;1.70;97899.40;;;;108899;1269;41624;-58
2022/11/15 06:36:27;;;;;;;11.60;5.70;;;;;1.70;97892.60;;;;108916;1271;41896;-58
2022/11/15 06:39:15;;;;;;;12.80;5.20;;;;;1.80;97890.20;;;;108818;1270;41595;-58
2022/11/15 06:42:08;;;;;;;11.70;6.10;;;;;1.86;97894.00;;;;108850;1270;41140;-58
2022/11/15 06:44:56;;;;;;;11.00;5.10;;;;;1.90;97888.60;;;;108916;1270;41179;-58
2022/11/15 06:47:46;;;;;;;11.90;6.10;;;;;2.00;97889.00;;;;108890;1270;41137;-59
2022/11/15 06:50:34;;;;;;;14.10;6.70;;;;;2.10;97884.40;;;;108875;1270;41141;-58
2022/11/15 06:53:22;;;;;;;11.80;5.90;;;;;2.16;97878.80;;;;108664;1271;41677;-59
2022/11/15 06:56:10;;;;;;;12.70;5.80;;;;;2.20;97876.40;;;;108630;1271;41239;-59
2022/11/15 06:58:57;;;;;;;13.20;6.00;;;;;2.22;97882.60;;;;108923;1270;41202;-58
2022/11/15 07:01:45;;;;;;;14.10;6.60;;;;;2.30;97885.60;;;;108594;1271;41603;-58
2022/11/15 07:04:34;;;;;;;12.70;5.00;;;;;2.32;97886.00;;;;108534;1271;41256;-59
2022/11/15 07:07:22;;;;;;;11.90;5.60;;;;;2.38;97878.00;;;;108611;1267;41130;-59
2022/11/15 07:10:09;;;;;;;12.70;5.50;;;;;2.40;97876.40;;;;108566;1262;41154;-58
2022/11/15 07:12:57;;;;;;;10.50;5.50;;;;;2.40;97877.60;;;;108579;1270;41148;-58
2022/11/15 07:15:46;;;;;;;11.90;5.50;;;;;2.48;97870.00;;;;108377;1270;41643;-60
2022/11/15 07:18:35;;;;;;;12.90;5.90;;;;;2.50;97867.20;;;;108494;1271;41602;-59
2022/11/15 07:21:22;;;;;;;11.00;5.70;;;;;2.50;97857.80;;;;108500;1271;41577;-59
2022/11/15 07:24:14;;;;;;;16.90;7.20;;;;;2.60;97858.80;;;;108565;1267;41159;-57
2022/11/15 07:27:02;;;;;;;17.30;7.00;;;;;2.70;97854.20;;;;108613;1271;41163;-59
2022/11/15 07:29:50;;;;;;;13.10;6.30;;;;;2.70;97854.40;;;;108740;1271;41325;-57
2022/11/15 07:32:37;;;;;;;11.50;6.10;;;;;2.80;97854.80;;;;108583;1270;41920;-57
2022/11/15 07:35:26;;;;;;;11.70;5.30;;;;;2.80;97850.60;;;;108505;1271;42340;-58
2022/11/15 07:38:15;;;;;;;11.10;5.50;;;;;2.90;97848.20;;;;108592;1271;41638;-58
2022/11/15 07:41:04;;;;;;;14.10;5.80;;;;;3.00;97841.20;;;;108708;1268;41240;-58
2022/11/15 07:44:01;;;;;;;12.00;5.40;;;;;3.10;97843.60;;;;108526;1266;41211;-60
2022/11/15 07:46:48;;;;;;;10.20;5.40;;;;;3.20;97840.60;;;;108574;1266;41519;-60
2022/11/15 07:49:36;;;;;;;10.90;4.90;;;;;3.30;97843.60;;;;108530;1269;41201;-59
2022/11/15 07:52:24;;;;;;;12.80;5.40;;;;;3.42;97838.00;;;;108726;1270;41156;-60
2022/11/15 07:55:12;;;;;;;11.70;5.50;;;;;3.50;97833.20;;;;108558;1271;41607;-60
2022/11/15 07:58:04;;;;;;;10.70;5.30;;;;;3.70;97833.40;;;;108573;1270;41618;-60
2022/11/15 08:00:52;;;;;;;11.50;5.50;;;;;3.72;97827.40;;;;108683;1270;41614;-60
2022/11/15 08:03:39;;;;;;;13.50;5.90;;;;;3.84;97824.20;;;;108776;1268;41166;-60
2022/11/15 08:06:27;;;;;;;13.20;5.80;;;;;3.90;97823.40;;;;108818;1269;41180;-60
2022/11/15 08:09:15;;;;;;;13.00;6.40;;;;;3.90;97814.40;;;;108800;1270;42053;-60
2022/11/15 08:12:02;;;;;;;12.80;6.20;;;;;4.00;97816.00;;;;108484;1270;42575;-60
2022/11/15 08:14:50;;;;;;;14.00;7.00;;;;;4.00;97818.00;;;;108749;1265;41570;-60
2022/11/15 08:17:37;;;;;;;14.20;6.40;;;;;4.06;97815.80;;;;108647;1271;41145;-60
2022/11/15 08:20:29;;;;;;;12.10;4.90;;;;;4.00;97822.40;;;;108525;1265;41246;-60
2022/11/15 08:23:16;;;;;;;15.80;8.40;;;;;4.10;97815.00;;;;108507;1270;41237;-60
2022/11/15 08:26:04;;;;;;;20.40;9.10;;;;;4.10;97818.00;;;;108518;1270;41243;-60
2022/11/15 08:28:51;;;;;;;19.00;8.00;;;;;4.10;97819.40;;;;108622;1270;41172;-60
2022/11/15 08:31:39;;;;;;;32.90;13.90;;;;;4.00;97814.80;;;;108741;1270;41700;-60
2022/11/15 08:34:26;;;;;;;17.40;9.00;;;;;3.90;97810.40;;;;108949;1271;42122;-60
2022/11/15 08:37:13;;;;;;;19.10;9.70;;;;;3.90;97808.40;;;;108822;1257;42291;-58
2022/11/15 08:40:01;;;;;;;19.90;8.40;;;;;4.00;97801.40;;;;108793;1266;41182;-60
2022/11/15 08:42:51;;;;;;;14.70;6.90;;;;;4.10;97799.60;;;;108825;1271;41214;-61
2022/11/15 08:45:40;;;;;;;15.20;6.40;;;;;4.10;97793.60;;;;108799;1271;41267;-60
2022/11/15 08:48:28;;;;;;;14.00;6.50;;;;;4.10;97791.80;;;;108836;1270;41148;-60
2022/11/15 08:51:16;;;;;;;13.50;6.30;;;;;4.24;97787.40;;;;108754;1270;41621;-60
2022/11/15 08:54:03;;;;;;;13.20;6.30;;;;;4.40;97780.60;;;;108911;1271;41854;-60
2022/11/15 08:56:51;;;;;;;13.20;5.90;;;;;4.50;97774.00;;;;108879;1263;41132;-60
2022/11/15 08:59:39;;;;;;;12.40;5.70;;;;;4.74;97769.20;;;;108897;1270;41975;-60
2022/11/15 09:02:27;;;;;;;11.10;5.80;;;;;4.98;97761.80;;;;108891;1271;42195;-61
2022/11/15 09:05:15;;;;;;;12.80;5.70;;;;;5.12;97756.20;;;;108675;1266;41246;-61
2022/11/15 09:08:03;;;;;;;10.60;5.40;;;;;5.30;97747.60;;;;108866;1266;41146;-61
2022/11/15 09:11:12;;;;;;;11.60;5.70;;;;;5.40;97750.40;;;;108693;1269;41700;-61
2022/11/15 09:13:59;;;;;;;12.60;5.90;;;;;5.50;97747.60;;;;108909;1270;41142;-60
2022/11/15 09:16:47;;;;;;;12.00;5.50;;;;;5.60;97747.00;;;;108899;1271;41658;-61
2022/11/15 09:19:34;;;;;;;12.70;6.20;;;;;5.76;97744.60;;;;108727;1270;41250;-60
2022/11/15 09:22:22;;;;;;;12.90;6.20;;;;;5.88;97740.40;;;;108886;1270;41624;-61
2022/11/15 09:25:09;;;;;;;12.30;6.30;;;;;6.00;97741.80;;;;108904;1270;41582;-61
2022/11/15 09:27:57;;;;;;;12.80;5.70;;;;;6.00;97736.80;;;;108623;1267;41161;-60
2022/11/15 09:30:44;;;;;;;16.90;6.20;;;;;6.14;97730.40;;;;108639;1263;41238;-61
2022/11/15 09:33:33;;;;;;;11.90;6.20;;;;;6.46;97722.20;;;;108603;1271;41229;-61
2022/11/15 09:36:21;;;;;;;13.70;5.80;;;;;7.00;97713.20;;;;108604;1269;41521;-61
2022/11/15 09:39:09;;;;;;;13.70;5.90;;;;;7.30;97710.80;;;;108619;1263;41225;-61
2022/11/15 09:42:01;;;;;;;15.30;7.90;;;;;7.50;97706.00;;;;108588;1271;41666;-60
2022/11/15 09:45:09;;;;;;;16.10;7.00;;;;;7.60;97697.60;;;;108578;1270;41695;-60
2022/11/15 09:48:19;;;;;;;12.40;6.60;;;;;7.80;97684.20;;;;108585;1266;41138;-61
2022/11/15 09:51:52;;;;;;;16.60;8.90;;;;;8.46;97677.80;;;;108496;1270;41170;-61
2022/11/15 09:54:23;;;;;;;13.90;7.00;;;;;9.10;97674.20;;;;108964;1271;41900;-60
2022/11/15 09:57:16;;;;;;;16.40;7.80;;;;;9.60;97669.60;;;;108638;1263;41196;-60
2022/11/15 09:59:45;;;;;;;15.40;7.70;;;;;10.00;97671.40;;;;108608;1271;41242;-60
2022/11/15 10:02:32;;;;;;;17.00;9.00;;;;;10.28;97664.40;;;;108601;1270;41149;-60
2022/11/15 10:05:02;;;;;;;15.90;8.50;;;;;10.70;97659.80;;;;108621;1271;41235;-60
2022/11/15 10:07:59;;;;;;;17.70;9.20;;;;;11.44;97661.00;;;;108823;1271;41222;-60
2022/11/15 10:10:42;;;;;;;17.80;8.70;;;;;12.34;97653.40;;;;108912;1271;41282;-60
2022/11/15 10:13:22;;;;;;;18.40;9.40;;;;;12.92;97641.20;;;;108780;1264;41146;-60
2022/11/15 10:15:52;;;;;;;;;;;;;13.36;97637.00;;;;108890;1271;41215;-60
2022/11/15 10:18:28;;;;;;;13.90;7.70;;;;;13.80;97638.00;;;;108835;1266;41616;-60
2022/11/15 10:20:59;;;;;;;17.70;8.90;;;;;14.10;97629.00;;;;108765;1268;41171;-61
2022/11/15 10:23:29;;;;;;;17.50;9.20;;;;;14.30;97624.00;;;;108788;1271;41288;-62
2022/11/15 10:25:59;;;;;;;16.00;8.50;;;;;14.40;97621.00;;;;108609;1270;41231;-61
2022/11/15 10:28:34;;;;;;;18.60;9.90;;;;;14.60;97606.40;;;;108597;1271;41221;-61
2022/11/15 10:31:04;;;;;;;16.20;8.40;;;;;14.60;97603.20;;;;108604;1271;41199;-61
2022/11/15 10:33:38;;;;;;;14.40;8.20;;;;;14.78;97602.40;;;;108634;1266;41156;-61
2022/11/15 10:36:16;;;;;;;14.50;7.10;;;;;14.98;97599.40;;;;108677;1270;41145;-61
2022/11/15 10:38:48;;;;;;;20.30;9.20;;;;;14.82;97597.00;;;;108937;1270;41138;-61
2022/11/15 10:41:27;;;;;;;21.70;8.80;;;;;15.00;97595.40;;;;108921;1270;42495;-61
2022/11/15 10:44:29;;;;;;;21.30;9.50;;;;;15.34;97592.40;;;;108906;1270;41250;-60
2022/11/15 10:46:58;;;;;;;20.60;10.20;;;;;15.90;97588.00;;;;108602;1271;41609;-60
2022/11/15 10:49:29;;;;;;;21.40;10.00;;;;;16.56;97583.40;;;;108922;1269;41236;-60
2022/11/15 10:51:59;;;;;;;20.80;11.40;;;;;16.90;97577.00;;;;108932;1271;41136;-60
2022/11/15 10:54:29;;;;;;;21.10;11.60;;;;;17.22;97571.20;;;;108786;1271;41642;-61
2022/11/15 10:56:59;;;;;;;24.50;10.40;;;;;17.64;97570.00;;;;108939;1270;41561;-61
2022/11/15 10:59:33;;;;;;;18.00;9.80;;;;;18.16;97557.80;;;;108912;1266;41386;-61
2022/11/15 11:02:29;;;;;;;20.60;9.60;;;;;18.70;97552.80;;;;108933;1269;41160;-61
2022/11/15 11:04:59;;;;;;;18.40;8.10;;;;;19.20;97544.60;;;;108933;1269;41605;-61
2022/11/15 11:07:33;;;;;;;17.60;8.30;;;;;19.86;97535.60;;;;108834;1266;41149;-62
2022/11/15 11:10:20;;;;;;;15.60;8.60;;;;;20.64;97535.60;;;;108895;1271;41148;-62
2022/11/15 11:13:25;;;;;;;18.60;9.30;;;;;21.30;97537.20;;;;108766;1269;42362;-61
2022/11/15 11:16:39;;;;;;;16.30;8.60;;;;;21.86;97523.00;;;;108867;1259;41211;-61
2022/11/15 11:19:45;;;;;;;18.00;8.80;;;;;22.50;97516.80;;;;108276;1278;41183;-62
2022/11/15 11:22:38;;;;;;;16.80;8.60;;;;;22.70;97514.60;;;;108904;1269;41649;-62
2022/11/15 11:25:11;;;;;;;16.80;8.60;;;;;22.80;97506.20;;;;108901;1270;41288;-62
2022/11/15 11:28:06;;;;;;;18.70;10.80;;;;;22.90;97501.80;;;;108850;1271;41174;-62
2022/11/15 11:30:50;;;;;;;20.30;9.20;;;;;22.80;97497.20;;;;108798;1270;41436;-62
2022/11/15 11:33:21;;;;;;;16.60;9.00;;;;;22.90;97493.80;;;;108902;1269;41234;-62
2022/11/15 11:35:55;;;;;;;18.10;8.70;;;;;23.10;97487.20;;;;108935;1266;41681;-62
2022/11/15 11:38:36;;;;;;;17.00;9.10;;;;;23.40;97478.40;;;;108952;1271;41983;-61
2022/11/15 11:41:45;;;;;;;17.30;9.30;;;;;23.70;97472.80;;;;108940;1262;41178;-62
2022/11/15 11:44:29;;;;;;;20.10;11.00;;;;;23.90;97468.40;;;;108779;1270;41176;-61
2022/11/15 11:47:10;;;;;;;19.30;9.30;;;;;23.90;97470.00;;;;108918;1271;41193;-62
2022/11/15 11:49:45;;;;;;;17.00;9.70;;;;;23.90;97462.40;;;;108865;1271;41159;-61
2022/11/15 11:52:43;;;;;;;17.60;10.00;;;;;23.90;97460.00;;;;108792;1271;41200;-62
2022/11/15 11:55:15;;;;;;;17.90;10.30;;;;;23.60;97452.60;;;;108899;1271;41244;-61
2022/11/15 11:57:54;;;;;;;24.60;10.40;;;;;23.20;97453.20;;;;108748;1266;41180;-61
2022/11/15 12:00:27;;;;;;;19.00;9.50;;;;;23.20;97448.20;;;;108601;1268;41145;-61
2022/11/15 12:02:58;;;;;;;18.10;10.10;;;;;23.64;97444.60;;;;108618;1270;41256;-61
2022/11/15 12:05:52;;;;;;;16.80;9.50;;;;;23.94;97435.40;;;;108604;1267;41560;-61
2022/11/15 12:08:41;;;;;;;15.20;8.70;;;;;24.38;97427.00;;;;108675;1271;42050;-61
2022/11/15 12:11:13;;;;;;;19.10;10.80;;;;;24.42;97421.60;;;;108936;1270;41143;-62
2022/11/15 12:13:43;;;;;;;25.80;11.10;;;;;24.54;97416.40;;;;108902;1266;41768;-61
2022/11/15 12:16:26;;;;;;;23.70;12.00;;;;;24.68;97410.60;;;;108839;1271;41408;-62
2022/11/15 12:18:58;;;;;;;21.10;11.80;;;;;24.74;97409.00;;;;108909;1270;41385;-62
2022/11/15 12:21:55;;;;;;;24.90;11.60;;;;;24.60;97402.80;;;;108917;1270;41886;-61
2022/11/15 12:24:28;;;;;;;19.20;10.90;;;;;24.60;97404.40;;;;108896;1270;41586;-60
2022/11/15 12:27:01;;;;;;;23.30;12.50;;;;;24.70;97406.80;;;;108905;1266;41290;-62
2022/11/15 12:29:48;;;;;;;21.50;11.40;;;;;24.80;97402.80;;;;108911;1257;41135;-61
2022/11/15 12:32:29;;;;;;;24.20;11.50;;;;;24.60;97402.20;;;;108916;1271;41133;-62
2022/11/15 12:34:59;;;;;;;24.10;13.20;;;;;24.40;97402.40;;;;108866;1270;41134;-62
2022/11/15 12:37:47;;;;;;;21.20;11.80;;;;;23.90;97405.40;;;;108771;1267;41162;-61
2022/11/15 12:40:26;;;;;;;18.70;11.00;;;;;23.80;97399.40;;;;108856;1266;41389;-61
2022/11/15 12:43:10;;;;;;;19.00;10.90;;;;;24.30;97398.20;;;;108883;1271;41376;-63
2022/11/15 12:45:41;;;;;;;21.10;11.10;;;;;24.46;97395.60;;;;108873;1265;41302;-62
2022/11/15 12:48:16;;;;;;;21.30;12.10;;;;;24.50;97400.00;;;;108837;1266;41602;-61
2022/11/15 12:51:03;;;;;;;22.20;11.60;;;;;24.24;97403.40;;;;108800;1271;41155;-61
2022/11/15 12:53:33;;;;;;;19.80;10.40;;;;;23.90;97394.60;;;;108632;1271;41160;-61
2022/11/15 12:56:02;;;;;;;18.90;10.20;;;;;23.52;97394.00;;;;108607;1271;41519;-61
2022/11/15 12:58:51;;;;;;;19.80;11.20;;;;;23.48;97394.80;;;;108794;1270;41881;-61
2022/11/15 13:01:35;;;;;;;20.60;11.00;;;;;23.32;97391.20;;;;108889;1263;42034;-61
2022/11/15 13:04:19;;;;;;;16.90;9.80;;;;;23.42;97389.00;;;;108914;1271;41163;-61
2022/11/15 13:06:54;;;;;;;16.20;9.90;;;;;23.36;97386.80;;;;108926;1269;41702;-61
2022/11/15 13:09:37;;;;;;;23.70;11.40;;;;;23.06;97390.20;;;;108934;1270;41228;-61
2022/11/15 13:12:13;;;;;;;18.90;11.90;;;;;22.80;97393.60;;;;108811;1271;41398;-61
2022/11/15 13:14:46;;;;;;;20.00;11.00;;;;;22.46;97386.20;;;;108899;1270;41154;-61
2022/11/15 13:17:27;;;;;;;19.30;10.70;;;;;22.30;97386.00;;;;108902;1270;41236;-61
2022/11/15 13:20:11;;;;;;;19.20;11.00;;;;;22.10;97387.40;;;;108904;1269;41154;-61
2022/11/15 13:22:52;;;;;;;22.40;11.80;;;;;22.00;97385.20;;;;108927;1271;41231;-61
2022/11/15 13:25:32;;;;;;;;;;;;;22.00;97378.60;;;;108917;1271;41238;-61
2022/11/15 13:28:28;;;;;;;21.20;10.30;;;;;21.94;97372.20;;;;108795;1270;41167;-61
2022/11/15 13:30:59;;;;;;;21.60;11.10;;;;;22.10;97369.80;;;;108930;1270;41182;-61
2022/11/15 13:33:32;;;;;;;20.60;11.50;;;;;22.10;97374.20;;;;108840;1264;41144;-61
2022/11/15 13:36:07;;;;;;;20.80;11.80;;;;;22.10;97366.60;;;;108952;1267;41836;-62
2022/11/15 13:38:38;;;;;;;20.10;12.00;;;;;21.70;97361.40;;;;108857;1271;41140;-62
2022/11/15 13:41:23;;;;;;;22.80;11.20;;;;;21.58;97360.40;;;;108933;1266;41469;-62
2022/11/15 13:43:53;;;;;;;19.90;11.90;;;;;21.40;97365.00;;;;108973;1270;42275;-62
2022/11/15 13:46:24;;;;;;;;;;;;;21.10;97366.80;;;;108932;1271;41141;-62
2022/11/15 13:49:03;;;;;;;21.00;11.50;;;;;20.78;97359.20;;;;108925;1270;41143;-62
2022/11/15 13:51:50;;;;;;;18.10;11.00;;;;;20.34;97363.80;;;;108850;1264;41227;-62
2022/11/15 13:54:29;;;;;;;19.00;11.50;;;;;19.40;97369.80;;;;108942;1269;41163;-62